createdAt,value
2018-01-27T00:01:45.452Z,97.17
2018-01-27T00:02:45.384Z,97.07
2018-01-27T00:04:38.367Z,97.07
2018-01-27T00:05:38.437Z,97.17
2018-01-27T00:07:31.171Z,96.88
2018-01-27T00:08:31.115Z,97.07
2018-01-27T00:10:24.322Z,97.36
2018-01-27T00:11:24.190Z,97.45
2018-01-27T00:13:17.146Z,97.45
2018-01-27T00:14:17.120Z,97.45
2018-01-27T00:16:10.091Z,97.36
2018-01-27T00:17:10.051Z,96.97
2018-01-27T00:19:02.835Z,97.69
2018-01-27T00:20:02.777Z,97.69
2018-01-27T00:21:55.740Z,97.60
2018-01-27T00:22:55.573Z,97.64
2018-01-27T00:24:48.552Z,97.60
2018-01-27T00:25:48.488Z,97.60
2018-01-27T00:27:41.461Z,97.12
2018-01-27T00:28:41.413Z,97.41
2018-01-27T00:30:34.571Z,97.50
2018-01-27T00:31:34.531Z,97.22
2018-01-27T00:33:27.372Z,97.69
2018-01-27T00:34:27.304Z,97.50
2018-01-27T00:36:20.232Z,97.78
2018-01-27T00:37:20.178Z,97.88
2018-01-27T00:39:13.283Z,97.78
2018-01-27T00:40:13.210Z,97.69
2018-01-27T00:42:06.131Z,97.88
2018-01-27T00:43:05.978Z,97.88
2018-01-27T00:44:58.947Z,97.88
2018-01-27T00:45:58.943Z,97.31
2018-01-27T00:47:51.876Z,97.60
2018-01-27T00:48:51.841Z,97.97
2018-01-27T00:50:44.649Z,98.26
2018-01-27T00:51:44.593Z,97.02
2018-01-27T00:53:37.621Z,97.41
2018-01-27T00:54:37.393Z,97.69
2018-01-27T00:56:30.341Z,97.69
2018-01-27T00:57:30.311Z,97.02
2018-01-27T00:59:23.267Z,97.50
2018-01-27T01:00:23.227Z,97.50
2018-01-27T01:02:16.146Z,97.02
2018-01-27T01:03:15.968Z,97.12
2018-01-27T01:05:08.796Z,97.69
2018-01-27T01:06:08.734Z,97.88
2018-01-27T01:08:01.717Z,97.69
2018-01-27T01:09:01.674Z,97.97
2018-01-27T01:10:54.637Z,98.07
2018-01-27T01:11:54.599Z,98.35
2018-01-27T01:13:47.718Z,97.50
2018-01-27T01:14:47.678Z,97.41
2018-01-27T01:16:40.677Z,97.50
2018-01-27T01:17:40.618Z,97.31
2018-01-27T01:19:33.593Z,97.50
2018-01-27T01:20:33.538Z,97.50
2018-01-27T01:22:26.371Z,97.88
2018-01-27T01:23:26.307Z,97.69
2018-01-27T01:25:19.222Z,97.41
2018-01-27T01:26:19.158Z,96.74
2018-01-27T01:28:12.107Z,97.02
2018-01-27T01:29:12.064Z,97.02
2018-01-27T01:31:05.062Z,97.02
2018-01-27T01:32:05.003Z,97.12
2018-01-27T01:33:58.198Z,96.64
2018-01-27T01:34:58.087Z,97.12
2018-01-27T01:36:51.052Z,97.02
2018-01-27T01:37:51.000Z,96.93
2018-01-27T01:39:43.968Z,96.74
2018-01-27T01:40:43.924Z,96.74
2018-01-27T01:42:37.133Z,96.74
2018-01-27T01:43:37.026Z,96.83
2018-01-27T01:45:29.993Z,96.74
2018-01-27T01:46:29.942Z,97.02
2018-01-27T01:48:22.928Z,97.22
2018-01-27T01:49:22.868Z,97.41
2018-01-27T01:51:15.714Z,97.22
2018-01-27T01:52:15.653Z,96.93
2018-01-27T01:54:08.612Z,97.31
2018-01-27T01:55:08.578Z,96.93
2018-01-27T01:57:01.388Z,96.93
2018-01-27T01:58:01.337Z,97.12
2018-01-27T01:59:54.294Z,96.83
2018-01-27T02:00:54.258Z,96.93
2018-01-27T02:02:47.065Z,96.83
2018-01-27T02:03:47.007Z,96.74
2018-01-27T02:05:39.842Z,97.12
2018-01-27T02:06:39.802Z,96.83
2018-01-27T02:08:32.782Z,96.55
2018-01-27T02:09:32.703Z,96.83
2018-01-27T02:11:25.717Z,96.83
2018-01-27T02:12:25.694Z,96.93
2018-01-27T02:14:18.939Z,97.12
2018-01-27T02:15:18.823Z,97.02
2018-01-27T02:17:11.826Z,97.02
2018-01-27T02:18:11.741Z,96.93
2018-01-27T02:20:04.712Z,97.12
2018-01-27T02:21:04.671Z,97.02
2018-01-27T02:22:57.649Z,96.93
2018-01-27T02:23:57.532Z,96.93
2018-01-27T02:25:50.517Z,96.26
2018-01-27T02:26:50.479Z,96.45
2018-01-27T02:28:43.452Z,96.36
2018-01-27T02:29:43.488Z,96.36
2018-01-27T02:31:36.624Z,96.36
2018-01-27T02:32:36.502Z,96.55
2018-01-27T02:34:29.522Z,96.17
2018-01-27T02:35:29.418Z,95.89
2018-01-27T02:37:22.368Z,95.60
2018-01-27T02:38:22.338Z,95.98
2018-01-27T02:40:15.511Z,95.98
2018-01-27T02:41:15.448Z,96.26
2018-01-27T02:43:08.257Z,95.70
2018-01-27T02:44:08.192Z,95.79
2018-01-27T02:46:01.002Z,95.98
2018-01-27T02:47:00.958Z,96.64
2018-01-27T02:48:53.931Z,96.36
2018-01-27T02:49:53.867Z,96.26
2018-01-27T02:51:46.701Z,96.17
2018-01-27T02:52:46.673Z,96.08
2018-01-27T02:54:39.658Z,96.36
2018-01-27T02:55:39.577Z,96.08
2018-01-27T02:57:32.723Z,96.36
2018-01-27T02:58:32.513Z,96.26
2018-01-27T03:00:25.584Z,97.22
2018-01-27T03:01:25.527Z,96.93
2018-01-27T03:03:18.493Z,96.83
2018-01-27T03:04:18.452Z,96.45
2018-01-27T03:06:11.413Z,96.93
2018-01-27T03:07:11.487Z,96.64
2018-01-27T03:09:04.331Z,96.93
2018-01-27T03:10:04.274Z,96.93
2018-01-27T03:11:57.113Z,96.93
2018-01-27T03:12:57.043Z,96.93
2018-01-27T03:14:50.024Z,96.64
2018-01-27T03:15:49.982Z,96.83
2018-01-27T03:17:42.809Z,96.83
2018-01-27T03:18:42.772Z,96.83
2018-01-27T03:20:36.094Z,96.64
2018-01-27T03:21:36.039Z,96.64
2018-01-27T03:23:29.013Z,96.83
2018-01-27T03:24:28.958Z,96.83
2018-01-27T03:26:21.922Z,96.64
2018-01-27T03:27:21.878Z,96.93
2018-01-27T03:29:15.017Z,96.83
2018-01-27T03:30:14.795Z,96.74
2018-01-27T03:32:07.804Z,97.02
2018-01-27T03:33:07.766Z,96.93
2018-01-27T03:35:00.783Z,96.93
2018-01-27T03:36:00.739Z,96.74
2018-01-27T03:37:53.566Z,96.83
2018-01-27T03:38:53.516Z,96.17
2018-01-27T03:40:46.657Z,96.26
2018-01-27T03:41:46.617Z,96.45
2018-01-27T03:43:39.588Z,96.31
2018-01-27T03:44:39.544Z,96.08
2018-01-27T03:46:32.649Z,96.08
2018-01-27T03:47:32.607Z,96.26
2018-01-27T03:49:25.604Z,96.36
2018-01-27T03:50:25.542Z,96.26
2018-01-27T03:52:18.353Z,96.26
2018-01-27T03:53:18.408Z,95.79
2018-01-27T03:55:11.579Z,96.17
2018-01-27T03:56:11.430Z,95.89
2018-01-27T03:58:04.387Z,96.36
2018-01-27T03:59:04.341Z,96.17
2018-01-27T04:00:57.333Z,96.55
2018-01-27T04:01:57.273Z,96.17
2018-01-27T04:03:50.439Z,96.45
2018-01-27T04:04:50.409Z,96.55
2018-01-27T04:06:43.379Z,96.45
2018-01-27T04:07:43.332Z,96.17
2018-01-27T04:09:36.300Z,96.17
2018-01-27T04:10:36.236Z,96.17
2018-01-27T04:12:29.331Z,96.17
2018-01-27T04:13:29.112Z,96.93
2018-01-27T04:15:22.116Z,97.02
2018-01-27T04:16:22.064Z,96.55
2018-01-27T04:18:15.008Z,96.45
2018-01-27T04:19:14.967Z,96.93
2018-01-27T04:21:08.197Z,96.74
2018-01-27T04:22:08.073Z,97.12
2018-01-27T04:24:01.044Z,97.31
2018-01-27T04:25:00.999Z,96.93
2018-01-27T04:26:53.974Z,97.88
2018-01-27T04:27:53.899Z,97.41
2018-01-27T04:29:46.735Z,98.26
2018-01-27T04:30:46.707Z,98.07
2018-01-27T04:32:39.662Z,98.35
2018-01-27T04:33:39.453Z,98.35
2018-01-27T04:35:32.444Z,98.16
2018-01-27T04:36:32.384Z,97.97
2018-01-27T04:38:25.354Z,98.07
2018-01-27T04:39:25.304Z,97.41
2018-01-27T04:41:18.519Z,97.41
2018-01-27T04:42:18.389Z,97.41
2018-01-27T04:44:11.187Z,98.26
2018-01-27T04:45:11.157Z,98.07
2018-01-27T04:47:04.247Z,97.31
2018-01-27T04:48:04.167Z,97.41
2018-01-27T04:49:57.378Z,97.78
2018-01-27T04:50:57.338Z,97.78
2018-01-27T04:52:50.159Z,97.50
2018-01-27T04:53:50.092Z,97.60
2018-01-27T04:55:43.042Z,97.69
2018-01-27T04:56:43.032Z,97.22
2018-01-27T04:58:36.235Z,97.12
2018-01-27T04:59:36.119Z,96.74
2018-01-27T05:01:29.058Z,96.55
2018-01-27T05:02:29.019Z,96.93
2018-01-27T05:04:22.013Z,96.93
2018-01-27T05:05:21.948Z,97.02
2018-01-27T05:07:14.869Z,97.22
2018-01-27T05:08:14.811Z,96.93
2018-01-27T05:10:07.783Z,96.93
2018-01-27T05:11:07.732Z,97.22
2018-01-27T05:13:00.788Z,96.93
2018-01-27T05:14:00.750Z,96.55
2018-01-27T05:15:53.961Z,96.64
2018-01-27T05:16:53.871Z,97.02
2018-01-27T05:18:46.827Z,97.02
2018-01-27T05:19:46.783Z,97.02
2018-01-27T05:21:39.602Z,96.83
2018-01-27T05:22:39.548Z,97.02
2018-01-27T05:24:32.754Z,97.22
2018-01-27T05:25:32.634Z,97.12
2018-01-27T05:27:25.632Z,96.93
2018-01-27T05:28:25.572Z,96.74
2018-01-27T05:30:18.508Z,97.22
2018-01-27T05:31:18.470Z,97.31
2018-01-27T05:33:11.298Z,97.41
2018-01-27T05:34:11.238Z,97.69
2018-01-27T05:36:04.292Z,97.50
2018-01-27T05:37:04.240Z,97.12
2018-01-27T05:38:57.224Z,97.88
2018-01-27T05:39:57.178Z,98.35
2018-01-27T05:41:49.974Z,98.26
2018-01-27T05:42:49.954Z,98.07
2018-01-27T05:44:43.178Z,98.07
2018-01-27T05:45:43.039Z,97.60
2018-01-27T05:47:35.980Z,97.97
2018-01-27T05:48:35.939Z,97.50
2018-01-27T05:50:28.914Z,97.41
2018-01-27T05:51:28.862Z,97.60
2018-01-27T05:53:21.646Z,97.31
2018-01-27T05:54:21.601Z,97.50
2018-01-27T05:56:14.466Z,97.78
2018-01-27T05:57:14.383Z,97.50
2018-01-27T05:59:07.384Z,97.69
2018-01-27T06:00:07.326Z,97.50
2018-01-27T06:02:00.295Z,97.60
2018-01-27T06:03:00.243Z,97.60
2018-01-27T06:04:53.468Z,97.41
2018-01-27T06:05:53.324Z,97.50
2018-01-27T06:07:46.390Z,97.60
2018-01-27T06:08:46.470Z,98.35
2018-01-27T06:10:39.668Z,98.26
2018-01-27T06:11:39.287Z,97.97
2018-01-27T06:13:32.316Z,98.35
2018-01-27T06:14:32.253Z,97.88
2018-01-27T06:16:25.226Z,97.88
2018-01-27T06:17:25.159Z,98.35
2018-01-27T06:19:17.959Z,98.35
2018-01-27T06:20:18.005Z,98.35
2018-01-27T06:22:10.750Z,98.73
2018-01-27T06:23:10.685Z,98.83
2018-01-27T06:25:03.750Z,98.83
2018-01-27T06:26:03.714Z,99.30
2018-01-27T06:27:56.713Z,98.92
2018-01-27T06:28:56.655Z,99.40
2018-01-27T06:30:49.611Z,99.21
2018-01-27T06:31:49.564Z,99.77
2018-01-27T06:33:42.608Z,99.99
2018-01-27T06:34:42.556Z,99.82
2018-01-27T06:36:35.488Z,99.99
2018-01-27T06:37:35.453Z,99.87
2018-01-27T06:39:28.408Z,99.73
2018-01-27T06:40:28.358Z,99.91
2018-01-27T06:42:21.155Z,99.99
2018-01-27T06:43:21.133Z,99.99
2018-01-27T06:45:13.935Z,99.99
2018-01-27T06:46:13.871Z,99.99
2018-01-27T06:48:06.865Z,99.99
2018-01-27T06:49:06.810Z,99.91
2018-01-27T06:50:59.767Z,99.82
2018-01-27T06:51:59.724Z,99.99
2018-01-27T06:53:52.969Z,99.99
2018-01-27T06:54:52.822Z,99.99
2018-01-27T06:56:45.777Z,99.97
2018-01-27T06:57:45.739Z,99.99
2018-01-27T06:59:38.701Z,99.99
2018-01-27T07:00:38.659Z,99.99
2018-01-27T07:02:31.778Z,99.87
2018-01-27T07:03:31.727Z,99.58
2018-01-27T07:05:24.754Z,99.63
2018-01-27T07:06:24.699Z,99.58
2018-01-27T07:08:17.688Z,99.21
2018-01-27T07:09:17.624Z,99.30
2018-01-27T07:11:10.417Z,99.26
2018-01-27T07:12:10.373Z,99.44
2018-01-27T07:14:03.330Z,99.44
2018-01-27T07:15:03.278Z,99.26
2018-01-27T07:16:56.228Z,99.35
2018-01-27T07:17:56.178Z,99.99
2018-01-27T07:19:49.154Z,99.73
2018-01-27T07:20:49.084Z,99.99
2018-01-27T07:22:41.915Z,99.54
2018-01-27T07:23:41.849Z,99.63
2018-01-27T07:25:34.825Z,99.73
2018-01-27T07:26:34.763Z,99.91
2018-01-27T07:28:27.755Z,99.91
2018-01-27T07:29:27.682Z,99.73
2018-01-27T07:31:20.636Z,99.26
2018-01-27T07:32:20.594Z,99.54
2018-01-27T07:34:13.540Z,99.26
2018-01-27T07:35:13.428Z,99.44
2018-01-27T07:37:06.394Z,99.26
2018-01-27T07:38:06.340Z,99.44
2018-01-27T07:39:59.284Z,99.26
2018-01-27T07:40:59.268Z,99.26
2018-01-27T07:42:52.529Z,99.54
2018-01-27T07:43:52.353Z,99.35
2018-01-27T07:45:45.330Z,99.26
2018-01-27T07:46:45.264Z,99.35
2018-01-27T07:48:38.198Z,99.99
2018-01-27T07:49:38.167Z,99.99
2018-01-27T07:51:31.370Z,99.99
2018-01-27T07:52:31.284Z,99.99
2018-01-27T07:54:24.242Z,99.82
2018-01-27T07:55:24.191Z,99.06
2018-01-27T07:57:17.141Z,99.82
2018-01-27T07:58:17.076Z,99.99
2018-01-27T08:00:09.913Z,99.73
2018-01-27T08:01:09.854Z,99.73
2018-01-27T08:03:02.900Z,99.99
2018-01-27T08:04:02.801Z,99.82
2018-01-27T08:05:55.763Z,99.54
2018-01-27T08:06:55.715Z,99.26
2018-01-27T08:08:48.673Z,99.91
2018-01-27T08:09:48.610Z,99.35
2018-01-27T08:11:41.646Z,98.87
2018-01-27T08:12:41.615Z,99.16
2018-01-27T08:14:34.512Z,99.06
2018-01-27T08:15:34.484Z,98.92
2018-01-27T08:17:27.432Z,98.59
2018-01-27T08:18:27.377Z,98.73
2018-01-27T08:20:20.534Z,98.78
2018-01-27T08:21:20.474Z,99.06
2018-01-27T08:23:13.445Z,98.68
2018-01-27T08:24:13.390Z,99.16
2018-01-27T08:26:06.335Z,98.78
2018-01-27T08:27:06.292Z,98.87
2018-01-27T08:28:59.118Z,98.26
2018-01-27T08:29:59.064Z,98.16
2018-01-27T08:31:52.063Z,98.26
2018-01-27T08:32:51.869Z,97.02
2018-01-27T08:34:44.779Z,97.78
2018-01-27T08:35:44.730Z,97.41
2018-01-27T08:37:37.719Z,97.12
2018-01-27T08:38:37.758Z,97.31
2018-01-27T08:40:30.816Z,97.31
2018-01-27T08:41:30.763Z,97.31
2018-01-27T08:43:23.749Z,96.74
2018-01-27T08:44:23.728Z,97.22
2018-01-27T08:46:17.635Z,97.12
2018-01-27T08:47:17.609Z,97.12
2018-01-27T08:49:10.450Z,97.22
2018-01-27T08:50:10.398Z,97.12
2018-01-27T08:52:03.205Z,97.12
2018-01-27T08:53:03.153Z,96.83
2018-01-27T08:54:56.141Z,96.74
2018-01-27T08:55:56.066Z,97.12
2018-01-27T08:57:48.990Z,96.55
2018-01-27T08:58:48.957Z,96.93
2018-01-27T09:00:42.190Z,96.55
2018-01-27T09:01:42.007Z,96.26
2018-01-27T09:03:34.952Z,96.17
2018-01-27T09:04:34.923Z,96.36
2018-01-27T09:06:27.880Z,95.79
2018-01-27T09:07:27.829Z,95.79
2018-01-27T09:09:20.981Z,95.03
2018-01-27T09:10:20.906Z,95.12
2018-01-27T09:12:13.890Z,95.70
2018-01-27T09:13:13.810Z,95.98
2018-01-27T09:15:06.609Z,95.98
2018-01-27T09:16:06.577Z,96.26
2018-01-27T09:17:59.526Z,96.36
2018-01-27T09:18:59.481Z,96.41
2018-01-27T09:20:52.317Z,96.98
2018-01-27T09:21:52.276Z,96.83
2018-01-27T09:23:45.246Z,96.45
2018-01-27T09:24:45.185Z,96.36
2018-01-27T09:26:38.137Z,96.55
2018-01-27T09:27:38.117Z,96.26
2018-01-27T09:29:31.131Z,96.31
2018-01-27T09:30:31.076Z,96.12
2018-01-27T09:32:23.891Z,96.03
2018-01-27T09:33:23.841Z,95.94
2018-01-27T09:35:16.680Z,95.84
2018-01-27T09:36:16.616Z,95.65
2018-01-27T09:38:09.602Z,95.75
2018-01-27T09:39:09.516Z,95.65
2018-01-27T09:41:02.479Z,94.79
2018-01-27T09:42:02.430Z,95.08
2018-01-27T09:43:55.254Z,95.46
2018-01-27T09:44:55.190Z,94.51
2018-01-27T09:46:48.160Z,94.98
2018-01-27T09:47:48.158Z,94.32
2018-01-27T09:49:41.164Z,94.27
2018-01-27T09:50:41.077Z,93.99
2018-01-27T09:52:33.832Z,93.79
2018-01-27T09:53:33.784Z,93.04
2018-01-27T09:55:26.596Z,92.85
2018-01-27T09:56:26.551Z,93.60
2018-01-27T09:58:19.363Z,91.23
2018-01-27T09:59:19.322Z,90.61
2018-01-27T10:01:12.300Z,86.66
2018-01-27T10:02:12.246Z,86.04
2018-01-27T10:04:05.212Z,81.89
2018-01-27T10:05:05.166Z,80.12
2018-01-27T10:06:58.107Z,77.49
2018-01-27T10:07:58.064Z,76.29
2018-01-27T10:09:50.936Z,74.04
2018-01-27T10:10:50.852Z,73.37
2018-01-27T10:12:43.673Z,72.71
2018-01-27T10:13:43.640Z,71.50
2018-01-27T10:15:36.474Z,69.15
2018-01-27T10:16:36.425Z,68.51
2018-01-27T10:18:29.401Z,66.73
2018-01-27T10:19:29.394Z,65.14
2018-01-27T10:21:22.537Z,63.19
2018-01-27T10:22:22.485Z,63.10
2018-01-27T10:24:15.907Z,63.13
2018-01-27T10:25:15.424Z,62.27
2018-01-27T10:27:08.260Z,61.88
2018-01-27T10:28:08.215Z,60.83
2018-01-27T10:30:01.431Z,61.44
2018-01-27T10:31:01.341Z,60.26
2018-01-27T10:32:54.165Z,61.51
2018-01-27T10:33:54.119Z,60.45
2018-01-27T10:35:47.101Z,59.14
2018-01-27T10:36:47.100Z,58.54
2018-01-27T10:38:40.241Z,58.95
2018-01-27T10:39:40.191Z,58.50
2018-01-27T10:41:33.162Z,55.27
2018-01-27T10:42:33.130Z,55.24
2018-01-27T10:44:26.136Z,55.18
2018-01-27T10:45:26.071Z,54.44
2018-01-27T10:47:18.940Z,53.50
2018-01-27T10:48:18.870Z,52.71
2018-01-27T10:50:11.842Z,52.83
2018-01-27T10:51:11.816Z,52.57
2018-01-27T10:53:04.670Z,52.26
2018-01-27T10:54:04.620Z,51.49
2018-01-27T10:55:57.624Z,50.24
2018-01-27T10:56:57.592Z,50.77
2018-01-27T10:58:50.665Z,55.02
2018-01-27T10:59:50.598Z,54.86
2018-01-27T11:01:43.426Z,52.81
2018-01-27T11:02:43.396Z,52.26
2018-01-27T11:04:36.232Z,50.43
2018-01-27T11:05:36.267Z,50.51
2018-01-27T11:07:29.242Z,50.46
2018-01-27T11:08:29.226Z,50.17
2018-01-27T11:10:22.191Z,51.08
2018-01-27T11:11:22.152Z,52.26
2018-01-27T11:13:15.120Z,51.42
2018-01-27T11:14:15.093Z,51.01
2018-01-27T11:16:08.338Z,50.92
2018-01-27T11:17:08.204Z,51.65
2018-01-27T11:19:01.210Z,52.78
2018-01-27T11:20:01.165Z,52.42
2018-01-27T11:21:54.017Z,52.33
2018-01-27T11:22:53.977Z,51.75
2018-01-27T11:24:47.142Z,49.98
2018-01-27T11:25:47.076Z,50.15
2018-01-27T11:27:40.055Z,50.05
2018-01-27T11:28:40.041Z,49.50
2018-01-27T11:30:33.018Z,49.79
2018-01-27T11:31:32.982Z,48.93
2018-01-27T11:33:25.798Z,48.07
2018-01-27T11:34:25.776Z,48.43
2018-01-27T11:36:18.761Z,49.19
2018-01-27T11:37:18.727Z,48.35
2018-01-27T11:39:11.707Z,49.02
2018-01-27T11:40:11.683Z,48.57
2018-01-27T11:42:04.986Z,46.36
2018-01-27T11:43:04.836Z,45.52
2018-01-27T11:44:57.794Z,47.03
2018-01-27T11:45:57.766Z,46.70
2018-01-27T11:47:50.766Z,47.61
2018-01-27T11:48:50.703Z,47.39
2018-01-27T11:50:43.557Z,45.50
2018-01-27T11:51:43.526Z,44.54
2018-01-27T11:53:36.523Z,44.75
2018-01-27T11:54:36.461Z,44.10
2018-01-27T11:56:29.591Z,42.77
2018-01-27T11:57:29.552Z,41.91
2018-01-27T11:59:22.477Z,41.70
2018-01-27T12:00:22.412Z,42.52
2018-01-27T12:02:15.491Z,44.75
2018-01-27T12:03:15.440Z,44.54
2018-01-27T12:05:08.403Z,45.59
2018-01-27T12:06:08.384Z,45.32
2018-01-27T12:08:01.236Z,44.58
2018-01-27T12:09:01.196Z,44.29
2018-01-27T12:10:54.156Z,44.27
2018-01-27T12:11:54.135Z,44.42
2018-01-27T12:13:47.119Z,46.43
2018-01-27T12:14:47.073Z,46.81
2018-01-27T12:16:39.951Z,46.26
2018-01-27T12:17:39.867Z,45.50
2018-01-27T12:19:32.719Z,44.84
2018-01-27T12:20:32.677Z,45.50
2018-01-27T12:22:25.651Z,45.11
2018-01-27T12:23:25.621Z,46.81
2018-01-27T12:25:18.612Z,47.77
2018-01-27T12:26:18.646Z,46.84
2018-01-27T12:28:11.778Z,45.11
2018-01-27T12:29:11.644Z,45.11
2018-01-27T12:31:04.656Z,45.14
2018-01-27T12:32:04.601Z,44.65
2018-01-27T12:33:57.748Z,44.46
2018-01-27T12:34:57.517Z,44.17
2018-01-27T12:36:50.371Z,44.48
2018-01-27T12:37:50.348Z,43.52
2018-01-27T12:39:43.318Z,42.93
2018-01-27T12:40:43.269Z,43.21
2018-01-27T12:42:36.247Z,43.47
2018-01-27T12:43:36.236Z,42.22
2018-01-27T12:45:29.515Z,42.56
2018-01-27T12:46:29.347Z,42.43
2018-01-27T12:48:22.319Z,43.12
2018-01-27T12:49:22.284Z,42.54
2018-01-27T12:51:15.278Z,41.26
2018-01-27T12:52:15.241Z,40.37
2018-01-27T12:54:08.049Z,41.43
2018-01-27T12:55:08.027Z,40.28
2018-01-27T12:57:00.896Z,40.31
2018-01-27T12:58:00.840Z,39.93
2018-01-27T12:59:53.831Z,40.12
2018-01-27T13:00:53.771Z,40.28
2018-01-27T13:02:46.626Z,42.83
2018-01-27T13:03:46.567Z,43.77
2018-01-27T13:05:39.729Z,43.40
2018-01-27T13:06:39.702Z,43.23
2018-01-27T13:08:32.541Z,43.23
2018-01-27T13:09:32.482Z,43.88
2018-01-27T13:11:25.482Z,45.01
2018-01-27T13:12:25.425Z,45.14
2018-01-27T13:14:18.569Z,44.48
2018-01-27T13:15:18.541Z,44.56
2018-01-27T13:17:11.542Z,43.40
2018-01-27T13:18:11.497Z,43.88
2018-01-27T13:20:04.460Z,44.73
2018-01-27T13:21:04.428Z,45.04
2018-01-27T13:22:57.531Z,44.44
2018-01-27T13:23:57.347Z,45.04
2018-01-27T13:25:50.312Z,45.47
2018-01-27T13:26:50.278Z,46.81
2018-01-27T13:28:43.245Z,47.63
2018-01-27T13:29:43.208Z,48.95
2018-01-27T13:31:36.027Z,50.26
2018-01-27T13:32:35.999Z,50.74
2018-01-27T13:34:29.016Z,51.51
2018-01-27T13:35:28.863Z,51.51
2018-01-27T13:37:21.845Z,52.63
2018-01-27T13:38:21.809Z,52.37
2018-01-27T13:40:14.673Z,52.15
2018-01-27T13:41:14.588Z,52.85
2018-01-27T13:43:07.730Z,51.79
2018-01-27T13:44:07.666Z,52.61
2018-01-27T13:46:00.534Z,55.07
2018-01-27T13:47:00.456Z,55.54
2018-01-27T13:48:53.419Z,56.69
2018-01-27T13:49:53.375Z,56.69
2018-01-27T13:51:46.204Z,56.76
2018-01-27T13:52:46.221Z,57.14
2018-01-27T13:54:39.451Z,57.26
2018-01-27T13:55:39.352Z,56.88
2018-01-27T13:57:32.177Z,56.24
2018-01-27T13:58:32.126Z,55.54
2018-01-27T14:00:25.121Z,55.38
2018-01-27T14:01:25.089Z,55.19
2018-01-27T14:03:18.207Z,54.10
2018-01-27T14:04:18.172Z,52.85
2018-01-27T14:06:11.146Z,48.88
2018-01-27T14:07:11.093Z,48.75
2018-01-27T14:09:04.053Z,49.62
2018-01-27T14:10:04.025Z,49.64
2018-01-27T14:11:56.888Z,48.78
2018-01-27T14:12:56.848Z,48.09
2018-01-27T14:14:49.802Z,49.14
2018-01-27T14:15:49.755Z,49.26
2018-01-27T14:17:42.734Z,48.21
2018-01-27T14:18:42.708Z,48.30
2018-01-27T14:20:35.581Z,47.34
2018-01-27T14:21:35.498Z,48.49
2018-01-27T14:23:28.578Z,48.75
2018-01-27T14:24:28.544Z,49.23
2018-01-27T14:26:21.518Z,49.69
2018-01-27T14:27:21.476Z,50.52
2018-01-27T14:29:14.464Z,51.95
2018-01-27T14:30:14.411Z,51.76
2018-01-27T14:32:07.279Z,53.08
2018-01-27T14:33:07.216Z,53.93
2018-01-27T14:35:00.191Z,54.41
2018-01-27T14:36:00.141Z,54.38
2018-01-27T14:37:53.114Z,55.88
2018-01-27T14:38:53.126Z,56.55
2018-01-27T14:40:46.309Z,56.46
2018-01-27T14:41:46.170Z,57.79
2018-01-27T14:43:39.157Z,59.31
2018-01-27T14:44:39.091Z,59.57
2018-01-27T14:46:32.062Z,60.62
2018-01-27T14:47:32.017Z,60.52
2018-01-27T14:49:24.872Z,60.62
2018-01-27T14:50:24.798Z,61.10
2018-01-27T14:52:18.447Z,61.48
2018-01-27T14:53:17.592Z,62.02
2018-01-27T14:55:10.575Z,62.40
2018-01-27T14:56:10.511Z,62.88
2018-01-27T14:58:03.482Z,63.54
2018-01-27T14:59:03.429Z,63.45
2018-01-27T15:00:56.648Z,64.40
2018-01-27T15:01:56.537Z,64.94
2018-01-27T15:03:49.542Z,65.70
2018-01-27T15:04:49.458Z,65.51
2018-01-27T15:06:42.599Z,65.89
2018-01-27T15:07:42.518Z,66.08
2018-01-27T15:09:35.350Z,65.99
2018-01-27T15:10:35.278Z,66.37
2018-01-27T15:12:28.274Z,66.27
2018-01-27T15:13:28.201Z,66.43
2018-01-27T15:15:20.996Z,66.14
2018-01-27T15:16:20.964Z,66.18
2018-01-27T15:18:13.947Z,66.72
2018-01-27T15:19:13.896Z,67.38
2018-01-27T15:21:06.963Z,67.95
2018-01-27T15:22:06.930Z,68.08
2018-01-27T15:23:59.890Z,67.99
2018-01-27T15:24:59.829Z,68.37
2018-01-27T15:26:52.770Z,68.15
2018-01-27T15:27:52.738Z,68.24
2018-01-27T15:29:45.572Z,69.57
2018-01-27T15:30:45.512Z,69.67
2018-01-27T15:32:38.506Z,69.00
2018-01-27T15:33:38.442Z,68.62
2018-01-27T15:35:31.433Z,69.38
2018-01-27T15:36:31.493Z,69.19
2018-01-27T15:38:24.323Z,69.54
2018-01-27T15:39:24.271Z,69.15
2018-01-27T15:41:17.302Z,69.82
2018-01-27T15:42:17.252Z,69.92
2018-01-27T15:44:10.216Z,70.39
2018-01-27T15:45:10.169Z,70.49
2018-01-27T15:47:03.114Z,71.25
2018-01-27T15:48:03.084Z,71.44
2018-01-27T15:49:56.202Z,72.39
2018-01-27T15:50:56.128Z,73.06
2018-01-27T15:52:48.969Z,72.92
2018-01-27T15:53:48.908Z,73.49
2018-01-27T15:55:41.849Z,72.92
2018-01-27T15:56:41.827Z,73.21
2018-01-27T15:58:34.979Z,73.49
2018-01-27T15:59:34.860Z,73.30
2018-01-27T16:01:27.681Z,73.59
2018-01-27T16:02:27.635Z,73.97
2018-01-27T16:04:20.602Z,74.82
2018-01-27T16:05:20.547Z,74.26
2018-01-27T16:07:13.530Z,74.82
2018-01-27T16:08:13.452Z,74.92
2018-01-27T16:10:06.326Z,75.07
2018-01-27T16:11:06.298Z,75.17
2018-01-27T16:12:59.082Z,75.45
2018-01-27T16:13:59.017Z,75.17
2018-01-27T16:15:51.997Z,75.36
2018-01-27T16:16:51.940Z,75.45
2018-01-27T16:18:44.853Z,75.55
2018-01-27T16:19:44.828Z,75.55
2018-01-27T16:21:37.667Z,74.98
2018-01-27T16:22:37.589Z,75.17
2018-01-27T16:24:30.424Z,76.21
2018-01-27T16:25:30.365Z,76.21
2018-01-27T16:27:23.388Z,76.40
2018-01-27T16:28:23.322Z,76.69
2018-01-27T16:30:16.163Z,76.69
2018-01-27T16:31:16.094Z,76.78
2018-01-27T16:33:09.050Z,77.17
2018-01-27T16:34:08.992Z,77.26
2018-01-27T16:36:01.829Z,77.64
2018-01-27T16:37:01.764Z,77.73
2018-01-27T16:38:54.567Z,77.36
2018-01-27T16:39:54.526Z,77.36
2018-01-27T16:41:47.368Z,77.64
2018-01-27T16:42:47.322Z,77.55
2018-01-27T16:44:40.122Z,77.73
2018-01-27T16:45:40.093Z,77.89
2018-01-27T16:47:33.068Z,77.79
2018-01-27T16:48:33.014Z,78.17
2018-01-27T16:50:26.202Z,78.74
2018-01-27T16:51:26.089Z,78.27
2018-01-27T16:53:19.079Z,78.17
2018-01-27T16:54:19.024Z,78.45
2018-01-27T16:56:11.962Z,78.55
2018-01-27T16:57:11.918Z,79.31
2018-01-27T16:59:04.749Z,79.97
2018-01-27T17:00:04.708Z,79.79
2018-01-27T17:01:57.655Z,79.79
2018-01-27T17:02:57.614Z,79.97
2018-01-27T17:04:50.592Z,80.45
2018-01-27T17:05:50.532Z,80.45
2018-01-27T17:07:43.504Z,80.35
2018-01-27T17:08:43.427Z,80.07
2018-01-27T17:10:36.243Z,81.12
2018-01-27T17:11:36.204Z,80.93
2018-01-27T17:13:29.182Z,81.26
2018-01-27T17:14:28.969Z,81.84
2018-01-27T17:16:21.780Z,82.12
2018-01-27T17:17:21.729Z,82.31
2018-01-27T17:19:14.849Z,82.78
2018-01-27T17:20:14.799Z,82.88
2018-01-27T17:22:07.980Z,82.50
2018-01-27T17:23:07.870Z,82.97
2018-01-27T17:25:00.854Z,82.78
2018-01-27T17:26:00.795Z,82.40
2018-01-27T17:27:53.599Z,82.78
2018-01-27T17:28:53.574Z,83.26
2018-01-27T17:30:46.536Z,83.36
2018-01-27T17:31:46.454Z,83.45
2018-01-27T17:33:39.292Z,83.73
2018-01-27T17:34:39.230Z,83.73
2018-01-27T17:36:32.188Z,83.45
2018-01-27T17:37:32.125Z,83.92
2018-01-27T17:39:24.947Z,84.40
2018-01-27T17:40:24.896Z,84.59
2018-01-27T17:42:17.874Z,84.49
2018-01-27T17:43:17.820Z,84.49
2018-01-27T17:45:11.037Z,85.16
2018-01-27T17:46:10.900Z,84.59
2018-01-27T17:48:03.853Z,84.36
2018-01-27T17:49:03.814Z,84.40
2018-01-27T17:50:56.749Z,84.87
2018-01-27T17:51:56.699Z,84.68
2018-01-27T17:53:49.504Z,84.26
2018-01-27T17:54:49.488Z,84.45
2018-01-27T17:56:42.290Z,85.21
2018-01-27T17:57:42.233Z,85.40
2018-01-27T17:59:35.221Z,86.25
2018-01-27T18:00:35.180Z,86.16
2018-01-27T18:02:28.150Z,86.82
2018-01-27T18:03:28.108Z,86.44
2018-01-27T18:05:21.305Z,86.44
2018-01-27T18:06:21.174Z,86.54
2018-01-27T18:08:14.153Z,86.91
2018-01-27T18:09:14.081Z,86.91
2018-01-27T18:11:07.046Z,87.30
2018-01-27T18:12:07.007Z,87.20
2018-01-27T18:14:00.120Z,87.30
2018-01-27T18:15:00.096Z,87.11
2018-01-27T18:16:52.890Z,87.39
2018-01-27T18:17:52.850Z,87.68
2018-01-27T18:19:45.833Z,87.58
2018-01-27T18:20:45.785Z,87.39
2018-01-27T18:22:38.594Z,87.58
2018-01-27T18:23:38.559Z,87.39
2018-01-27T18:25:31.386Z,87.49
2018-01-27T18:26:31.311Z,87.01
2018-01-27T18:28:24.298Z,87.01
2018-01-27T18:29:24.074Z,86.72
2018-01-27T18:31:16.895Z,86.91
2018-01-27T18:32:16.824Z,86.72
2018-01-27T18:34:09.789Z,87.11